createdAt,value
2023-01-08T00:00:06.733Z,97412.59
2023-01-08T00:01:10.957Z,97418.69
2023-01-08T00:02:12.541Z,97411.78
2023-01-08T00:03:14.706Z,97414.19
2023-01-08T00:04:18.031Z,97412.59
2023-01-08T00:05:19.564Z,97414.19
2023-01-08T00:06:25.269Z,97414.19
2023-01-08T00:07:26.798Z,97408.88
2023-01-08T00:08:29.574Z,97416.56
2023-01-08T00:09:31.124Z,97415.78
2023-01-08T00:10:32.651Z,97415.78
2023-01-08T00:11:34.228Z,97410.47
2023-01-08T00:12:35.887Z,97414.69
2023-01-08T00:13:37.830Z,97412.56
2023-01-08T00:14:39.393Z,97409.13
2023-01-08T00:15:40.932Z,97414.16
2023-01-08T00:16:42.532Z,97411.50
2023-01-08T00:17:44.174Z,97410.44
2023-01-08T00:18:47.100Z,97414.41
2023-01-08T00:19:48.658Z,97408.31
2023-01-08T00:20:50.210Z,97412.59
2023-01-08T00:21:51.790Z,97417.91
2023-01-08T00:22:53.384Z,97413.16
2023-01-08T00:23:55.395Z,97415.31
2023-01-08T00:24:56.924Z,97418.00
2023-01-08T00:26:02.433Z,97410.56
2023-01-08T00:27:04.078Z,97415.31
2023-01-08T00:28:05.920Z,97414.75
2023-01-08T00:29:07.634Z,97412.13
2023-01-08T00:30:09.575Z,97412.75
2023-01-08T00:31:12.839Z,97418.06
2023-01-08T00:32:14.413Z,97406.16
2023-01-08T00:33:16.225Z,97412.28
2023-01-08T00:34:17.785Z,97413.38
2023-01-08T00:35:19.352Z,97413.38
2023-01-08T00:36:20.954Z,97417.59
2023-01-08T00:37:22.486Z,97412.84
2023-01-08T00:38:28.706Z,97413.13
2023-01-08T00:39:30.313Z,97406.53
2023-01-08T00:40:34.290Z,97408.66
2023-01-08T00:41:35.848Z,97409.75
2023-01-08T00:42:37.436Z,97407.66
2023-01-08T00:43:39.215Z,97408.44
2023-01-08T00:44:40.767Z,97415.06
2023-01-08T00:45:42.761Z,97412.41
2023-01-08T00:46:44.406Z,97410.78
2023-01-08T00:47:46.020Z,97411.31
2023-01-08T00:48:47.549Z,97417.41
2023-01-08T00:49:49.100Z,97411.31
2023-01-08T00:50:52.205Z,97410.78
2023-01-08T00:51:53.722Z,97410.78
2023-01-08T00:52:55.299Z,97408.16
2023-01-08T00:53:56.840Z,97414.00
2023-01-08T00:54:58.332Z,97418.22
2023-01-08T00:56:05.734Z,97417.16
2023-01-08T00:57:07.275Z,97420.88
2023-01-08T00:58:08.831Z,97413.97
2023-01-08T00:59:10.430Z,97409.72
2023-01-08T01:00:15.248Z,97412.34
2023-01-08T01:01:16.966Z,97406.00
2023-01-08T01:02:18.759Z,97404.69
2023-01-08T01:03:20.471Z,97408.09
2023-01-08T01:04:22.041Z,97404.41
2023-01-08T01:05:23.712Z,97405.47
2023-01-08T01:06:25.245Z,97403.88
2023-01-08T01:07:26.864Z,97408.63
2023-01-08T01:08:28.472Z,97407.03
2023-01-08T01:09:30.477Z,97411.84
2023-01-08T01:10:32.033Z,97413.94
2023-01-08T01:11:33.874Z,97410.25
2023-01-08T01:12:37.816Z,97406.53
2023-01-08T01:13:39.408Z,97410.75
2023-01-08T01:14:40.973Z,97409.19
2023-01-08T01:15:42.464Z,97400.16
2023-01-08T01:16:44.140Z,97405.19
2023-01-08T01:17:46.296Z,97400.16
2023-01-08T01:18:48.052Z,97399.63
2023-01-08T01:19:49.565Z,97405.47
2023-01-08T01:20:51.538Z,97403.31
2023-01-08T01:21:53.070Z,97398.03
2023-01-08T01:22:54.639Z,97398.03
2023-01-08T01:23:58.627Z,97399.06
2023-01-08T01:25:00.245Z,97410.75
2023-01-08T01:26:01.791Z,97410.75
2023-01-08T01:27:03.403Z,97402.81
2023-01-08T01:28:05.150Z,97400.44
2023-01-08T01:29:06.737Z,97403.88
2023-01-08T01:30:09.431Z,97400.69
2023-01-08T01:31:13.648Z,97405.19
2023-01-08T01:32:15.630Z,97399.09
2023-01-08T01:33:17.153Z,97393.28
2023-01-08T01:34:18.694Z,97396.97
2023-01-08T01:35:20.212Z,97399.38
2023-01-08T01:36:23.810Z,97400.16
2023-01-08T01:37:25.340Z,97395.38
2023-01-08T01:38:26.889Z,97399.06
2023-01-08T01:39:28.615Z,97392.44
2023-01-08T01:40:30.208Z,97394.84
2023-01-08T01:41:43.016Z,97396.41
2023-01-08T01:42:44.691Z,97401.69
2023-01-08T01:43:46.283Z,97399.03
2023-01-08T01:44:47.955Z,97401.69
2023-01-08T01:45:49.964Z,97396.41
2023-01-08T01:46:51.600Z,97391.09
2023-01-08T01:48:11.529Z,97389.53
2023-01-08T01:49:19.834Z,97389.56
2023-01-08T01:50:42.695Z,97390.66
2023-01-08T01:51:53.341Z,97390.66
2023-01-08T01:53:07.350Z,97401.25
2023-01-08T01:54:12.994Z,97390.66
2023-01-08T01:55:16.000Z,97394.88
2023-01-08T01:56:17.637Z,97396.00
2023-01-08T01:57:19.358Z,97395.19
2023-01-08T01:58:24.685Z,97398.38
2023-01-08T01:59:26.341Z,97398.66
2023-01-08T02:00:29.181Z,97392.03
2023-01-08T02:01:31.855Z,97401.31
2023-01-08T02:02:33.873Z,97404.47
2023-01-08T02:03:38.333Z,97399.72
2023-01-08T02:04:40.359Z,97400.25
2023-01-08T02:05:52.499Z,97405.53
2023-01-08T02:07:11.650Z,97401.56
2023-01-08T02:08:26.121Z,97397.88
2023-01-08T02:09:41.834Z,97399.19
2023-01-08T02:10:51.746Z,97396.53
2023-01-08T02:12:18.236Z,97402.88
2023-01-08T02:13:37.091Z,97394.94
2023-01-08T02:15:01.814Z,97394.69
2023-01-08T02:16:15.946Z,97395.47
2023-01-08T02:17:24.240Z,97397.56
2023-01-08T02:18:38.949Z,97401.28
2023-01-08T02:19:46.432Z,97398.13
2023-01-08T02:20:57.649Z,97404.47
2023-01-08T02:22:25.910Z,97405.53
2023-01-08T02:23:48.371Z,97406.31
2023-01-08T02:25:01.261Z,97405.03
2023-01-08T02:26:11.965Z,97406.06
2023-01-08T02:27:16.027Z,97404.47
2023-01-08T02:28:17.919Z,97399.44
2023-01-08T02:29:24.331Z,97395.47
2023-01-08T02:30:26.008Z,97402.34
2023-01-08T02:31:30.523Z,97406.56
2023-01-08T02:32:39.108Z,97401.81
2023-01-08T02:33:40.999Z,97392.81
2023-01-08T02:34:42.562Z,97397.31
2023-01-08T02:36:10.852Z,97401.28
2023-01-08T02:37:12.428Z,97401.28
2023-01-08T02:38:17.342Z,97394.66
2023-01-08T02:39:46.739Z,97401.00
2023-01-08T02:41:02.734Z,97400.50
2023-01-08T02:42:25.715Z,97398.13
2023-01-08T02:43:34.022Z,97399.19
2023-01-08T02:45:03.018Z,97394.94
2023-01-08T02:46:08.156Z,97393.88
2023-01-08T02:47:18.515Z,97388.84
2023-01-08T02:48:40.304Z,97394.13
2023-01-08T02:49:46.545Z,97386.44
2023-01-08T02:50:58.651Z,97397.47
2023-01-08T02:52:03.937Z,97393.78
2023-01-08T02:53:22.187Z,97397.44
2023-01-08T02:54:30.040Z,97395.03
2023-01-08T02:55:34.691Z,97395.06
2023-01-08T02:56:42.617Z,97395.84
2023-01-08T02:57:44.372Z,97395.03
2023-01-08T02:58:48.538Z,97390.84
2023-01-08T02:59:51.367Z,97392.66
2023-01-08T03:00:54.724Z,97395.25
2023-01-08T03:01:56.667Z,97398.50
2023-01-08T03:03:10.650Z,97396.00
2023-01-08T03:04:19.081Z,97401.13
2023-01-08T03:05:26.514Z,97401.56
2023-01-08T03:06:29.380Z,97398.34
2023-01-08T03:07:31.489Z,97397.41
2023-01-08T03:08:36.268Z,97402.09
2023-01-08T03:09:37.828Z,97393.34
2023-01-08T03:10:45.359Z,97399.41
2023-01-08T03:11:55.009Z,97402.78
2023-01-08T03:13:05.415Z,97397.97
2023-01-08T03:14:20.280Z,97399.03
2023-01-08T03:15:36.451Z,97396.88
2023-01-08T03:16:41.971Z,97395.22
2023-01-08T03:17:48.219Z,97397.88
2023-01-08T03:18:55.472Z,97394.50
2023-01-08T03:20:02.779Z,97394.78
2023-01-08T03:21:06.498Z,97401.47
2023-01-08T03:22:12.151Z,97404.88
2023-01-08T03:23:15.603Z,97400.59
2023-01-08T03:24:22.265Z,97398.72
2023-01-08T03:25:26.373Z,97396.25
2023-01-08T03:26:30.606Z,97396.63
2023-01-08T03:27:36.506Z,97393.41
2023-01-08T03:28:47.007Z,97398.59
2023-01-08T03:29:52.678Z,97395.41
2023-01-08T03:30:54.532Z,97393.34
2023-01-08T03:32:04.595Z,97396.91
2023-01-08T03:33:09.512Z,97391.63
2023-01-08T03:34:14.302Z,97393.19
2023-01-08T03:35:20.664Z,97391.06
2023-01-08T03:36:27.516Z,97394.78
2023-01-08T03:37:34.791Z,97392.88
2023-01-08T03:38:46.837Z,97393.56
2023-01-08T03:40:16.509Z,97389.75
2023-01-08T03:41:22.035Z,97393.34
2023-01-08T03:42:25.078Z,97392.38
2023-01-08T03:43:26.879Z,97393.81
2023-01-08T03:44:28.646Z,97387.31
2023-01-08T03:45:32.128Z,97389.25
2023-01-08T03:46:38.807Z,97385.38
2023-01-08T03:47:42.550Z,97387.00
2023-01-08T03:48:44.905Z,97388.16
2023-01-08T03:49:48.121Z,97385.00
2023-01-08T03:50:49.775Z,97385.56
2023-01-08T03:51:51.416Z,97386.38
2023-01-08T03:52:52.987Z,97384.25
2023-01-08T03:53:58.788Z,97377.69
2023-01-08T03:55:00.314Z,97381.41
2023-01-08T03:56:01.850Z,97378.78
2023-01-08T03:57:03.673Z,97370.91
2023-01-08T03:58:05.186Z,97379.63
2023-01-08T03:59:06.778Z,97379.41
2023-01-08T04:00:08.951Z,97375.72
2023-01-08T04:01:10.579Z,97373.88
2023-01-08T04:02:12.330Z,97374.69
2023-01-08T04:03:13.986Z,97372.06
2023-01-08T04:04:15.741Z,97374.22
2023-01-08T04:05:17.363Z,97378.94
2023-01-08T04:06:18.862Z,97371.56
2023-01-08T04:07:20.541Z,97376.06
2023-01-08T04:08:22.123Z,97375.25
2023-01-08T04:09:23.620Z,97378.69
2023-01-08T04:10:26.196Z,97375.53
2023-01-08T04:11:27.833Z,97381.38
2023-01-08T04:12:29.490Z,97375.84
2023-01-08T04:13:31.104Z,97379.56
2023-01-08T04:14:32.647Z,97383.25
2023-01-08T04:15:34.540Z,97377.44
2023-01-08T04:16:36.129Z,97379.03
2023-01-08T04:17:37.714Z,97383.81
2023-01-08T04:18:39.232Z,97379.03
2023-01-08T04:19:40.891Z,97376.34
2023-01-08T04:20:46.569Z,97376.53
2023-01-08T04:21:51.556Z,97384.13
2023-01-08T04:22:53.089Z,97382.16
2023-01-08T04:23:55.189Z,97385.44
2023-01-08T04:24:56.672Z,97381.13
2023-01-08T04:25:58.564Z,97387.09
2023-01-08T04:27:00.085Z,97380.09
2023-01-08T04:28:01.754Z,97385.13
2023-01-08T04:29:04.194Z,97387.28
2023-01-08T04:30:06.343Z,97389.41
2023-01-08T04:31:09.333Z,97394.69
2023-01-08T04:32:11.101Z,97393.59
2023-01-08T04:33:12.848Z,97394.16
2023-01-08T04:34:14.404Z,97388.91
2023-01-08T04:35:15.999Z,97391.03
2023-01-08T04:36:17.559Z,97393.69
2023-01-08T04:37:19.132Z,97395.28
2023-01-08T04:38:20.671Z,97395.75
2023-01-08T04:39:22.244Z,97393.84
2023-01-08T04:40:23.909Z,97392.56
2023-01-08T04:41:25.471Z,97395.19
2023-01-08T04:42:26.973Z,97398.31
2023-01-08T04:43:29.888Z,97392.19
2023-01-08T04:44:31.571Z,97388.44
2023-01-08T04:45:33.216Z,97399.22
2023-01-08T04:46:34.970Z,97393.34
2023-01-08T04:47:36.592Z,97391.66
2023-01-08T04:48:38.219Z,97402.69
2023-01-08T04:49:39.732Z,97392.69
2023-01-08T04:50:41.257Z,97392.63
2023-01-08T04:51:42.822Z,97397.38
2023-01-08T04:52:44.374Z,97389.72
2023-01-08T04:53:46.406Z,97394.25
2023-01-08T04:54:47.978Z,97393.81
2023-01-08T04:55:49.654Z,97396.91
2023-01-08T04:56:51.906Z,97395.69
2023-01-08T04:57:53.398Z,97390.19
2023-01-08T04:58:55.019Z,97396.56
2023-01-08T04:59:56.561Z,97394.50
2023-01-08T05:00:58.180Z,97391.63
2023-01-08T05:01:59.982Z,97395.50
2023-01-08T05:03:01.864Z,97398.22
2023-01-08T05:04:05.186Z,97396.66
2023-01-08T05:05:07.410Z,97394.59
2023-01-08T05:06:09.182Z,97397.28
2023-01-08T05:07:10.780Z,97390.44
2023-01-08T05:08:12.300Z,97394.69
2023-01-08T05:09:13.907Z,97391.59
2023-01-08T05:10:15.456Z,97394.78
2023-01-08T05:11:17.139Z,97392.47
2023-01-08T05:12:18.868Z,97393.75
2023-01-08T05:13:20.797Z,97392.63
2023-01-08T05:14:22.403Z,97402.06
2023-01-08T05:15:24.013Z,97398.78
2023-01-08T05:16:25.572Z,97396.13
2023-01-08T05:17:27.264Z,97400.38
2023-01-08T05:18:29.884Z,97403.06
2023-01-08T05:19:31.460Z,97398.34
2023-01-08T05:20:33.609Z,97400.47
2023-01-08T05:21:35.540Z,97403.94
2023-01-08T05:22:37.064Z,97402.44
2023-01-08T05:23:38.809Z,97400.09
2023-01-08T05:24:40.355Z,97403.28
2023-01-08T05:25:41.889Z,97405.41
2023-01-08T05:26:43.491Z,97404.38
2023-01-08T05:27:45.017Z,97405.38
2023-01-08T05:28:47.060Z,97401.63
2023-01-08T05:29:48.663Z,97404.78
2023-01-08T05:30:50.405Z,97403.22
2023-01-08T05:31:51.957Z,97405.38
2023-01-08T05:32:53.493Z,97398.59
2023-01-08T05:33:57.299Z,97410.75
2023-01-08T05:34:58.847Z,97399.69
2023-01-08T05:36:00.489Z,97405.47
2023-01-08T05:37:02.152Z,97404.97
2023-01-08T05:38:04.260Z,97411.59
2023-01-08T05:39:06.001Z,97404.81
2023-01-08T05:40:07.992Z,97409.84
2023-01-08T05:41:09.882Z,97410.94
2023-01-08T05:42:11.384Z,97409.63
2023-01-08T05:43:13.197Z,97410.69
2023-01-08T05:44:14.718Z,97412.56
2023-01-08T05:45:16.807Z,97413.66
2023-01-08T05:46:18.375Z,97408.88
2023-01-08T05:47:19.952Z,97414.16
2023-01-08T05:48:21.554Z,97414.69
2023-01-08T05:49:23.968Z,97413.59
2023-01-08T05:50:25.992Z,97410.81
2023-01-08T05:51:27.640Z,97413.84
2023-01-08T05:52:30.008Z,97413.03
2023-01-08T05:53:32.990Z,97413.28
2023-01-08T05:54:34.573Z,97414.31
2023-01-08T05:55:36.661Z,97418.44
2023-01-08T05:56:38.183Z,97413.09
2023-01-08T05:57:39.846Z,97411.44
2023-01-08T05:58:41.452Z,97421.38
2023-01-08T05:59:43.048Z,97417.09
2023-01-08T06:00:45.228Z,97417.94
2023-01-08T06:01:46.868Z,97420.41
2023-01-08T06:02:48.905Z,97418.31
2023-01-08T06:03:50.569Z,97419.16
2023-01-08T06:04:52.160Z,97412.53
2023-01-08T06:05:53.795Z,97417.81
2023-01-08T06:06:55.313Z,97416.97
2023-01-08T06:07:58.163Z,97419.31
2023-01-08T06:08:59.766Z,97415.97
2023-01-08T06:10:01.337Z,97416.28
2023-01-08T06:11:06.345Z,97420.00
2023-01-08T06:12:07.996Z,97423.59
2023-01-08T06:13:10.354Z,97418.50
2023-01-08T06:14:11.897Z,97418.19
2023-01-08T06:15:13.409Z,97420.88
2023-01-08T06:16:15.048Z,97420.88
2023-01-08T06:17:17.297Z,97420.06
2023-01-08T06:18:18.880Z,97424.63
2023-01-08T06:19:20.866Z,97418.09
2023-01-08T06:20:22.441Z,97416.88
2023-01-08T06:21:23.968Z,97415.84
2023-01-08T06:22:25.577Z,97423.31
2023-01-08T06:23:27.124Z,97427.59
2023-01-08T06:24:28.737Z,97419.19
2023-01-08T06:25:30.270Z,97429.22
2023-01-08T06:26:31.864Z,97419.25
2023-01-08T06:27:33.413Z,97426.97
2023-01-08T06:28:35.639Z,97423.56
2023-01-08T06:29:37.212Z,97424.63
2023-01-08T06:30:38.755Z,97424.66
2023-01-08T06:31:40.500Z,97424.69
2023-01-08T06:32:42.138Z,97425.78
2023-01-08T06:33:43.661Z,97425.78
2023-01-08T06:34:45.195Z,97433.75
2023-01-08T06:35:46.729Z,97429.56
2023-01-08T06:36:48.280Z,97431.13
2023-01-08T06:37:49.835Z,97423.75
2023-01-08T06:38:51.420Z,97433.72
2023-01-08T06:39:52.991Z,97430.56
2023-01-08T06:40:54.517Z,97438.47
2023-01-08T06:41:56.108Z,97432.94
2023-01-08T06:43:05.469Z,97438.53
2023-01-08T06:44:07.083Z,97439.59
2023-01-08T06:45:09.365Z,97437.50
2023-01-08T06:46:11.045Z,97433.47
2023-01-08T06:47:12.595Z,97442.72
2023-01-08T06:48:14.179Z,97437.16
2023-01-08T06:49:17.445Z,97444.31
2023-01-08T06:50:19.065Z,97443.81
2023-01-08T06:51:20.674Z,97434.03
2023-01-08T06:52:22.252Z,97436.69
2023-01-08T06:53:24.841Z,97440.66
2023-01-08T06:54:26.348Z,97447.00
2023-01-08T06:55:28.088Z,97438.81
2023-01-08T06:56:29.668Z,97444.34
2023-01-08T06:57:31.344Z,97442.78
2023-01-08T06:58:33.572Z,97448.56
2023-01-08T06:59:35.686Z,97442.72
2023-01-08T07:00:37.394Z,97440.13
2023-01-08T07:01:39.023Z,97442.94
2023-01-08T07:02:40.853Z,97441.97
2023-01-08T07:03:43.519Z,97438.56
2023-01-08T07:04:45.079Z,97442.84
2023-01-08T07:05:46.648Z,97448.41
2023-01-08T07:06:48.282Z,97451.66
2023-01-08T07:07:50.323Z,97438.88
2023-01-08T07:08:51.883Z,97441.81
2023-01-08T07:09:53.392Z,97455.25
2023-01-08T07:10:54.944Z,97450.50
2023-01-08T07:11:56.484Z,97449.97
2023-01-08T07:12:58.659Z,97452.41
2023-01-08T07:14:00.309Z,97453.94
2023-01-08T07:15:02.363Z,97453.59
2023-01-08T07:16:12.405Z,97447.72
2023-01-08T07:17:14.029Z,97450.69
2023-01-08T07:18:15.596Z,97454.44
2023-01-08T07:19:17.212Z,97457.06
2023-01-08T07:20:18.958Z,97451.50
2023-01-08T07:21:22.574Z,97449.19
2023-01-08T07:22:25.770Z,97447.38
2023-01-08T07:23:27.390Z,97452.19
2023-01-08T07:24:28.980Z,97442.50
2023-01-08T07:25:31.017Z,97449.38
2023-01-08T07:26:32.514Z,97453.34
2023-01-08T07:27:34.035Z,97453.88
2023-01-08T07:28:35.597Z,97456.50
2023-01-08T07:29:37.199Z,97460.72
2023-01-08T07:30:38.941Z,97452.53
2023-01-08T07:31:40.577Z,97448.56
2023-01-08T07:32:42.148Z,97444.91
2023-01-08T07:33:43.767Z,97453.91
2023-01-08T07:34:45.282Z,97447.81
2023-01-08T07:35:53.567Z,97450.16
2023-01-08T07:36:55.139Z,97452.00
2023-01-08T07:37:56.869Z,97453.84
2023-01-08T07:38:58.473Z,97444.34
2023-01-08T07:40:00.022Z,97448.63
2023-01-08T07:41:01.585Z,97449.16
2023-01-08T07:42:03.171Z,97452.72
2023-01-08T07:43:05.051Z,97447.66
2023-01-08T07:44:06.701Z,97453.25
2023-01-08T07:45:08.729Z,97451.41
2023-01-08T07:46:10.518Z,97451.19
2023-01-08T07:47:12.096Z,97449.38
2023-01-08T07:48:16.541Z,97451.22
2023-01-08T07:49:18.124Z,97449.63
2023-01-08T07:50:19.640Z,97451.25
2023-01-08T07:51:21.545Z,97449.97
2023-01-08T07:52:23.052Z,97453.41
2023-01-08T07:53:24.585Z,97447.53
2023-01-08T07:54:26.106Z,97452.31
2023-01-08T07:55:29.926Z,97456.06
2023-01-08T07:56:31.449Z,97449.47
2023-01-08T07:57:33.013Z,97447.88
2023-01-08T07:58:35.444Z,97453.44
2023-01-08T07:59:37.004Z,97445.03
2023-01-08T08:00:38.771Z,97447.44
2023-01-08T08:01:40.341Z,97445.59
2023-01-08T08:02:42.080Z,97442.16
2023-01-08T08:03:43.828Z,97448.50
2023-01-08T08:04:45.401Z,97443.72
2023-01-08T08:05:47.044Z,97441.09
2023-01-08T08:06:48.641Z,97442.97
2023-01-08T08:07:50.187Z,97437.16
2023-01-08T08:08:51.751Z,97443.00
2023-01-08T08:09:53.326Z,97442.19
2023-01-08T08:10:54.976Z,97445.66
2023-01-08T08:11:56.629Z,97450.16
2023-01-08T08:12:58.193Z,97448.34
2023-01-08T08:13:59.750Z,97448.84
2023-01-08T08:15:01.298Z,97449.94
2023-01-08T08:16:04.376Z,97448.06
2023-01-08T08:17:06.006Z,97450.44
2023-01-08T08:18:08.168Z,97451.47
2023-01-08T08:19:11.479Z,97441.69
2023-01-08T08:20:13.020Z,97442.00
2023-01-08T08:21:14.549Z,97438.81
2023-01-08T08:22:16.122Z,97442.53
2023-01-08T08:23:17.670Z,97438.59
2023-01-08T08:24:19.247Z,97437.25
2023-01-08T08:25:20.873Z,97445.19
2023-01-08T08:26:22.834Z,97438.06
2023-01-08T08:27:24.784Z,97441.50
2023-01-08T08:28:26.353Z,97442.03
2023-01-08T08:29:27.930Z,97438.84
2023-01-08T08:30:31.647Z,97445.19
2023-01-08T08:31:33.246Z,97438.31
2023-01-08T08:32:34.811Z,97438.88
2023-01-08T08:33:36.332Z,97441.00
2023-01-08T08:34:37.840Z,97438.38
2023-01-08T08:35:40.331Z,97432.78
2023-01-08T08:36:41.924Z,97435.19
2023-01-08T08:37:43.452Z,97429.88
2023-01-08T08:38:45.043Z,97436.78
2023-01-08T08:39:46.680Z,97429.88
2023-01-08T08:40:48.366Z,97436.47
2023-01-08T08:41:50.007Z,97436.22
2023-01-08T08:42:59.628Z,97430.69
2023-01-08T08:44:01.226Z,97427.50
2023-01-08T08:45:02.991Z,97435.44
2023-01-08T08:46:04.662Z,97429.34
2023-01-08T08:47:10.071Z,97421.94
2023-01-08T08:48:11.819Z,97418.50
2023-01-08T08:49:13.401Z,97422.97
2023-01-08T08:50:14.949Z,97418.72
2023-01-08T08:51:16.507Z,97424.00
2023-01-08T08:52:18.138Z,97419.72
2023-01-08T08:53:19.666Z,97419.69
2023-01-08T08:54:21.215Z,97421.59
2023-01-08T08:55:22.779Z,97421.38
2023-01-08T08:56:24.329Z,97420.06
2023-01-08T08:57:26.947Z,97413.19
2023-01-08T08:58:28.534Z,97416.38
2023-01-08T08:59:30.059Z,97421.41
2023-01-08T09:00:31.667Z,97413.47
2023-01-08T09:01:33.282Z,97409.22
2023-01-08T09:02:34.996Z,97410.81
2023-01-08T09:03:36.800Z,97409.50
2023-01-08T09:04:38.374Z,97410.31
2023-01-08T09:05:40.082Z,97407.66
2023-01-08T09:06:41.597Z,97405.81
2023-01-08T09:07:43.143Z,97408.16
2023-01-08T09:08:44.781Z,97406.31
2023-01-08T09:09:46.311Z,97410.31
2023-01-08T09:10:47.878Z,97402.09
2023-01-08T09:11:50.418Z,97405.50
2023-01-08T09:12:53.328Z,97404.97
2023-01-08T09:13:54.968Z,97407.66
2023-01-08T09:14:57.269Z,97402.34
2023-01-08T09:15:59.980Z,97405.22
2023-01-08T09:17:01.542Z,97396.22
2023-01-08T09:18:03.321Z,97403.38
2023-01-08T09:19:06.577Z,97407.09
2023-01-08T09:20:08.536Z,97406.28
2023-01-08T09:21:10.271Z,97408.13
2023-01-08T09:22:11.840Z,97399.91
2023-01-08T09:23:13.363Z,97400.94
2023-01-08T09:24:14.953Z,97404.91
2023-01-08T09:25:17.148Z,97400.13
2023-01-08T09:26:18.686Z,97400.91
2023-01-08T09:27:20.244Z,97400.91
2023-01-08T09:28:21.752Z,97400.66
2023-01-08T09:29:23.318Z,97396.13
2023-01-08T09:30:24.871Z,97387.38
2023-01-08T09:31:27.390Z,97388.16
2023-01-08T09:32:29.004Z,97386.28
2023-01-08T09:33:31.309Z,97389.94
2023-01-08T09:34:33.511Z,97392.03
2023-01-08T09:35:35.075Z,97388.81
2023-01-08T09:36:36.617Z,97387.97
2023-01-08T09:37:38.750Z,97382.38
2023-01-08T09:38:40.583Z,97382.38
2023-01-08T09:39:42.581Z,97380.78
2023-01-08T09:40:55.714Z,97374.38
2023-01-08T09:42:01.281Z,97378.69
2023-01-08T09:43:04.179Z,97377.06
2023-01-08T09:44:07.593Z,97370.19
2023-01-08T09:45:23.007Z,97380.88
2023-01-08T09:46:27.807Z,97369.81
2023-01-08T09:47:34.905Z,97368.00
2023-01-08T09:48:39.117Z,97363.19
2023-01-08T09:49:45.746Z,97365.03
2023-01-08T09:50:48.745Z,97362.84
2023-01-08T09:51:50.457Z,97352.84
2023-01-08T09:52:51.993Z,97350.44
2023-01-08T09:53:56.335Z,97353.88
2023-01-08T09:54:58.258Z,97351.75
2023-01-08T09:56:09.776Z,97345.84
2023-01-08T09:57:19.506Z,97344.16
2023-01-08T09:58:30.003Z,97344.06
2023-01-08T09:59:31.781Z,97345.13
2023-01-08T10:00:34.600Z,97344.06
2023-01-08T10:01:38.931Z,97338.88
2023-01-08T10:02:41.097Z,97340.69
2023-01-08T10:03:50.913Z,97337.63
2023-01-08T10:05:00.263Z,97331.31
2023-01-08T10:06:07.843Z,97332.41
2023-01-08T10:07:24.638Z,97327.06
2023-01-08T10:08:32.908Z,97324.38
2023-01-08T10:09:34.482Z,97322.31
2023-01-08T10:10:37.376Z,97320.72
2023-01-08T10:11:43.195Z,97322.03
2023-01-08T10:12:45.496Z,97325.50
2023-01-08T10:13:52.686Z,97329.41
2023-01-08T10:14:58.971Z,97324.66
2023-01-08T10:16:00.692Z,97324.09
2023-01-08T10:17:23.822Z,97317.97
2023-01-08T10:18:28.059Z,97317.16
2023-01-08T10:19:29.655Z,97316.44
2023-01-08T10:20:32.308Z,97307.50
2023-01-08T10:21:40.339Z,97310.69
2023-01-08T10:22:42.496Z,97312.31
2023-01-08T10:23:52.176Z,97308.84
2023-01-08T10:24:53.707Z,97303.25
2023-01-08T10:26:00.600Z,97300.03
2023-01-08T10:27:07.440Z,97297.91
2023-01-08T10:28:20.574Z,97296.84
2023-01-08T10:29:22.103Z,97297.91
2023-01-08T10:30:34.805Z,97296.84
2023-01-08T10:31:46.477Z,97298.94
2023-01-08T10:32:54.422Z,97288.81
2023-01-08T10:33:56.693Z,97294.25
2023-01-08T10:35:02.724Z,97288.34
2023-01-08T10:36:09.766Z,97286.03
2023-01-08T10:37:36.435Z,97284.41
2023-01-08T10:38:52.912Z,97283.28
2023-01-08T10:39:59.991Z,97280.88
2023-01-08T10:41:05.046Z,97287.41
2023-01-08T10:42:07.162Z,97275.69
2023-01-08T10:43:42.568Z,97276.22
2023-01-08T10:45:20.648Z,97271.06
2023-01-08T10:46:23.797Z,97269.97
2023-01-08T10:47:27.275Z,97267.59
2023-01-08T10:48:39.113Z,97264.34
2023-01-08T10:49:43.920Z,97259.72
2023-01-08T10:50:45.524Z,97257.88
2023-01-08T10:51:53.145Z,97255.78
2023-01-08T10:53:03.560Z,97253.28
2023-01-08T10:54:23.583Z,97249.78
2023-01-08T10:55:25.529Z,97238.94
2023-01-08T10:56:40.407Z,97246.19
2023-01-08T10:57:43.735Z,97243.63
2023-01-08T10:58:45.254Z,97246.19
2023-01-08T10:59:46.831Z,97241.56
2023-01-08T11:00:48.547Z,97249.91
2023-01-08T11:01:52.366Z,97244.81
2023-01-08T11:02:54.366Z,97241.78
2023-01-08T11:04:01.336Z,97233.41
2023-01-08T11:05:05.172Z,97225.38
2023-01-08T11:06:19.399Z,97235.44
2023-01-08T11:07:23.437Z,97226.13
2023-01-08T11:08:25.128Z,97230.69
2023-01-08T11:09:34.742Z,97225.38
2023-01-08T11:10:37.414Z,97221.53
2023-01-08T11:11:38.976Z,97215.28
2023-01-08T11:12:41.734Z,97214.34
2023-01-08T11:13:55.328Z,97218.09
2023-01-08T11:14:57.423Z,97203.78
2023-01-08T11:16:19.329Z,97208.25
2023-01-08T11:17:25.712Z,97207.91
2023-01-08T11:18:28.437Z,97204.13
2023-01-08T11:19:33.908Z,97201.00
2023-01-08T11:20:35.825Z,97208.91
2023-01-08T11:21:37.353Z,97201.06
2023-01-08T11:22:38.932Z,97197.97
2023-01-08T11:23:40.472Z,97194.66
2023-01-08T11:24:42.369Z,97192.50
2023-01-08T11:26:05.697Z,97191.41
2023-01-08T11:27:15.161Z,97193.25
2023-01-08T11:28:26.655Z,97197.34
2023-01-08T11:29:45.847Z,97183.78
2023-01-08T11:30:55.463Z,97181.00
2023-01-08T11:32:03.178Z,97178.69
2023-01-08T11:33:21.052Z,97183.72
2023-01-08T11:34:32.003Z,97170.34
2023-01-08T11:35:39.704Z,97171.50
2023-01-08T11:36:51.177Z,97173.09
2023-01-08T11:37:59.698Z,97168.56
2023-01-08T11:39:02.814Z,97173.66
2023-01-08T11:40:13.841Z,97170.13
2023-01-08T11:41:29.277Z,97160.28
2023-01-08T11:42:48.769Z,97166.81
2023-01-08T11:44:07.237Z,97157.75
2023-01-08T11:45:21.037Z,97155.50
2023-01-08T11:46:42.915Z,97152.03
2023-01-08T11:48:19.855Z,97155.03
2023-01-08T11:49:33.469Z,97164.28
2023-01-08T11:50:50.211Z,97160.34
2023-01-08T11:52:09.834Z,97152.41
2023-01-08T11:53:47.269Z,97155.38
2023-01-08T11:55:26.741Z,97150.09
2023-01-08T11:56:49.295Z,97141.81
2023-01-08T11:58:15.733Z,97140.63
2023-01-08T11:59:30.057Z,97139.44
2023-01-08T12:00:59.271Z,97147.94
2023-01-08T12:02:22.723Z,97130.47
2023-01-08T12:03:38.448Z,97132.75
2023-01-08T12:05:34.002Z,97130.56
2023-01-08T12:06:52.789Z,97129.38
2023-01-08T12:08:27.201Z,97128.91
2023-01-08T12:09:46.995Z,97119.69
2023-01-08T12:11:07.200Z,97125.00
2023-01-08T12:12:36.452Z,97125.63
2023-01-08T12:13:52.402Z,97124.53
2023-01-08T12:15:03.049Z,97124.34
2023-01-08T12:16:15.174Z,97119.78
2023-01-08T12:17:35.099Z,97120.59
2023-01-08T12:18:49.276Z,97119.09
2023-01-08T12:20:12.204Z,97113.16
2023-01-08T12:21:31.022Z,97112.38
2023-01-08T12:22:55.672Z,97119.06
2023-01-08T12:24:11.411Z,97119.22
2023-01-08T12:25:35.061Z,97120.81
2023-01-08T12:26:55.079Z,97107.66
2023-01-08T12:28:02.656Z,97115.38
2023-01-08T12:29:13.202Z,97111.91
2023-01-08T12:30:35.044Z,97112.69
2023-01-08T12:31:36.528Z,97114.69
2023-01-08T12:32:49.376Z,97110.34
2023-01-08T12:33:59.812Z,97112.47
2023-01-08T12:35:20.097Z,97110.03
2023-01-08T12:36:29.983Z,97111.03
2023-01-08T12:37:42.064Z,97107.69
2023-01-08T12:38:48.480Z,97108.66
2023-01-08T12:40:19.053Z,97106.44
2023-01-08T12:41:20.843Z,97103.31
2023-01-08T12:42:28.324Z,97100.53
2023-01-08T12:43:59.172Z,97112.34